createdAt,value
2023-10-04T00:01:29.761Z,3.60
2023-10-04T00:06:34.894Z,3.62
2023-10-04T00:11:39.158Z,2.70
2023-10-04T00:16:43.692Z,2.72
2023-10-04T00:21:48.855Z,2.67
2023-10-04T00:26:52.561Z,3.12
2023-10-04T00:31:56.389Z,3.05
2023-10-04T00:37:02.156Z,3.62
2023-10-04T00:42:06.103Z,3.28
2023-10-04T00:47:10.468Z,3.08
2023-10-04T00:52:15.956Z,3.30
2023-10-04T00:57:19.829Z,2.95
2023-10-04T01:02:23.564Z,3.50
2023-10-04T01:07:28.707Z,3.10
2023-10-04T01:12:32.847Z,3.62
2023-10-04T01:17:37.244Z,3.30
2023-10-04T01:22:42.431Z,3.67
2023-10-04T01:27:46.204Z,3.20
2023-10-04T01:32:51.221Z,3.00
2023-10-04T01:37:56.502Z,3.28
2023-10-04T01:43:01.310Z,3.87
2023-10-04T01:48:06.013Z,3.40
2023-10-04T01:53:11.511Z,3.90
2023-10-04T01:58:17.016Z,3.17
2023-10-04T02:03:21.228Z,3.42
2023-10-04T02:08:26.645Z,3.67
2023-10-04T02:13:33.896Z,3.00
2023-10-04T02:18:37.772Z,4.28
2023-10-04T02:23:43.951Z,3.40
2023-10-04T02:28:48.572Z,3.55
2023-10-04T02:33:53.458Z,4.07
2023-10-04T02:38:59.227Z,3.60
2023-10-04T02:44:04.043Z,4.30
2023-10-04T02:49:10.191Z,4.05
2023-10-04T02:54:17.479Z,4.35
2023-10-04T02:59:21.688Z,3.83
2023-10-04T03:04:25.491Z,3.20
2023-10-04T03:09:31.106Z,4.15
2023-10-04T03:14:35.292Z,3.75
2023-10-04T03:19:39.930Z,4.70
2023-10-04T03:24:46.824Z,4.18
2023-10-04T03:29:52.920Z,3.75
2023-10-04T03:34:56.748Z,4.00
2023-10-04T03:40:02.056Z,3.90
2023-10-04T03:45:08.910Z,4.22
2023-10-04T03:50:14.075Z,4.07
2023-10-04T03:55:19.888Z,4.85
2023-10-04T04:00:24.882Z,5.03
2023-10-04T04:05:29.397Z,4.37
2023-10-04T04:10:34.684Z,3.97
2023-10-04T04:15:41.085Z,4.57
2023-10-04T04:20:45.702Z,4.55
2023-10-04T04:25:51.329Z,4.70
2023-10-04T04:30:55.461Z,4.87
2023-10-04T04:36:06.057Z,5.20
2023-10-04T04:41:14.267Z,4.55
2023-10-04T04:46:20.356Z,4.28
2023-10-04T04:51:24.798Z,4.57
2023-10-04T04:56:30.166Z,4.70
2023-10-04T05:01:35.689Z,4.30
2023-10-04T05:06:41.167Z,5.05
2023-10-04T05:11:46.559Z,4.72
2023-10-04T05:16:50.972Z,5.07
2023-10-04T05:21:54.754Z,5.18
2023-10-04T05:26:59.812Z,5.12
2023-10-04T05:32:03.670Z,4.95
2023-10-04T05:37:10.550Z,5.68
2023-10-04T05:42:15.735Z,4.22
2023-10-04T05:47:19.621Z,5.45
2023-10-04T05:52:23.897Z,5.22
2023-10-04T05:57:29.604Z,4.72
2023-10-04T06:02:33.495Z,5.22
2023-10-04T06:07:37.203Z,6.28
2023-10-04T06:12:42.324Z,5.87
2023-10-04T06:17:47.025Z,5.30
2023-10-04T06:22:52.108Z,4.68
2023-10-04T06:27:59.198Z,5.25
2023-10-04T06:33:05.212Z,3.97
2023-10-04T06:38:11.544Z,5.80
2023-10-04T06:43:16.655Z,5.20
2023-10-04T06:48:20.542Z,4.78
2023-10-04T06:53:24.518Z,4.87
2023-10-04T06:58:30.160Z,5.43
2023-10-04T07:03:34.066Z,4.70
2023-10-04T07:08:37.880Z,5.57
2023-10-04T07:13:44.632Z,5.50
2023-10-04T07:18:49.891Z,5.30
2023-10-04T07:23:53.859Z,5.28
2023-10-04T07:28:59.548Z,5.18
2023-10-04T07:34:04.311Z,5.32
2023-10-04T07:39:08.283Z,4.90
2023-10-04T07:44:14.260Z,5.03
2023-10-04T07:49:18.123Z,4.65
2023-10-04T07:54:21.892Z,4.97
2023-10-04T07:59:27.693Z,4.78
2023-10-04T08:04:31.696Z,4.82
2023-10-04T08:09:35.495Z,4.93
2023-10-04T08:14:41.246Z,4.47
2023-10-04T08:19:45.059Z,5.97
2023-10-04T08:24:50.823Z,5.35
2023-10-04T08:29:56.679Z,4.68
2023-10-04T08:35:01.012Z,5.10
2023-10-04T08:40:05.584Z,4.78
2023-10-04T08:45:11.960Z,5.15
2023-10-04T08:50:20.933Z,5.78
2023-10-04T08:55:27.941Z,5.10
2023-10-04T09:00:36.897Z,5.05
2023-10-04T09:05:47.262Z,4.25
2023-10-04T09:10:51.740Z,5.07
2023-10-04T09:15:57.028Z,5.45
2023-10-04T09:21:15.966Z,5.15
2023-10-04T09:26:20.310Z,5.40
2023-10-04T09:31:27.369Z,4.60
2023-10-04T09:36:34.765Z,5.97
2023-10-04T09:41:43.282Z,5.33
2023-10-04T09:52:01.353Z,5.55
2023-10-04T09:57:08.503Z,5.43
2023-10-04T10:02:16.566Z,4.72
2023-10-04T10:12:31.112Z,5.43
2023-10-04T10:17:36.957Z,4.78
2023-10-04T10:23:11.912Z,6.22
2023-10-04T10:28:23.884Z,5.80
2023-10-04T10:33:29.418Z,6.22
2023-10-04T10:38:46.780Z,4.80
2023-10-04T10:44:21.638Z,5.03
2023-10-04T10:49:51.527Z,4.93
2023-10-04T10:54:57.006Z,5.35
2023-10-04T11:00:05.836Z,5.47
2023-10-04T11:05:13.666Z,5.40
2023-10-04T11:10:18.690Z,4.87
2023-10-04T11:15:24.805Z,4.68
2023-10-04T11:20:33.295Z,4.28
2023-10-04T11:25:37.792Z,4.55
2023-10-04T11:30:41.803Z,4.60
2023-10-04T11:35:48.646Z,4.50
2023-10-04T11:40:53.832Z,3.72
2023-10-04T11:46:06.734Z,4.40
2023-10-04T11:51:11.968Z,4.03
2023-10-04T11:56:15.685Z,4.15
2023-10-04T12:01:21.314Z,4.70
2023-10-04T12:06:26.973Z,4.40
2023-10-04T12:11:36.424Z,4.25
2023-10-04T12:16:42.851Z,4.68
2023-10-04T12:21:48.799Z,4.65
2023-10-04T12:26:56.482Z,5.03
2023-10-04T12:32:00.561Z,5.35
2023-10-04T12:37:05.996Z,5.45
2023-10-04T12:42:09.772Z,4.65
2023-10-04T12:47:14.281Z,4.30
2023-10-04T12:52:20.211Z,4.82
2023-10-04T12:57:24.112Z,4.30
2023-10-04T13:02:28.036Z,3.70
2023-10-04T13:07:33.957Z,4.18
2023-10-04T13:12:39.605Z,3.25
2023-10-04T13:17:44.341Z,3.15
2023-10-04T13:22:50.907Z,3.30
2023-10-04T13:27:54.782Z,2.97
2023-10-04T13:32:59.266Z,3.10
2023-10-04T13:38:05.357Z,3.40
2023-10-04T13:43:10.096Z,2.67
2023-10-04T13:48:13.947Z,3.55
2023-10-04T13:53:20.910Z,2.28
2023-10-04T13:58:24.983Z,2.87
2023-10-04T14:03:28.833Z,2.45
2023-10-04T14:08:34.261Z,2.45
2023-10-04T14:13:39.083Z,3.03
2023-10-04T14:18:43.846Z,2.65
2023-10-04T14:23:49.128Z,2.60
2023-10-04T14:28:54.194Z,2.40
2023-10-04T14:33:58.246Z,2.83
2023-10-04T14:39:03.642Z,1.90
2023-10-04T14:44:08.056Z,2.65
2023-10-04T14:49:12.379Z,2.97
2023-10-04T14:54:17.438Z,2.37
2023-10-04T14:59:21.186Z,3.05
2023-10-04T15:04:25.134Z,2.42
2023-10-04T15:09:30.370Z,2.70
2023-10-04T15:14:34.213Z,2.30
2023-10-04T15:19:38.720Z,2.97
2023-10-04T15:24:43.813Z,2.65
2023-10-04T15:29:48.032Z,2.72
2023-10-04T15:34:51.875Z,2.33
2023-10-04T15:39:58.587Z,2.90
2023-10-04T15:45:02.589Z,2.75
2023-10-04T15:50:07.628Z,3.08
2023-10-04T15:55:13.751Z,2.70
2023-10-04T16:00:31.245Z,2.47
2023-10-04T16:05:35.513Z,2.58
2023-10-04T16:10:40.688Z,2.60
2023-10-04T16:15:45.154Z,3.05
2023-10-04T16:20:48.970Z,4.10
2023-10-04T16:25:54.176Z,3.83
2023-10-04T16:30:58.981Z,3.00
2023-10-04T16:36:04.959Z,3.10
2023-10-04T16:41:10.065Z,3.45
2023-10-04T16:46:14.483Z,3.22
2023-10-04T16:51:18.384Z,3.40
2023-10-04T16:56:23.571Z,2.97
2023-10-04T17:01:27.817Z,3.58
2023-10-04T17:06:33.277Z,3.05
2023-10-04T17:11:38.812Z,3.83
2023-10-04T17:16:45.478Z,3.37
2023-10-04T17:21:49.316Z,3.25
2023-10-04T17:26:54.447Z,3.45
2023-10-04T17:32:00.711Z,3.85
2023-10-04T17:37:04.494Z,2.90
2023-10-04T17:42:09.989Z,3.35
2023-10-04T17:47:13.789Z,3.00
2023-10-04T17:52:18.715Z,3.50
2023-10-04T17:57:24.338Z,3.53
2023-10-04T18:02:28.087Z,3.12
2023-10-04T18:07:31.981Z,3.08
2023-10-04T18:12:38.179Z,3.17
2023-10-04T18:17:42.575Z,3.75
2023-10-04T18:22:46.540Z,2.87
2023-10-04T18:27:51.723Z,2.67
2023-10-04T18:32:55.801Z,2.65
2023-10-04T18:37:59.781Z,3.08
2023-10-04T18:43:05.868Z,3.33
2023-10-04T18:48:10.950Z,3.20
2023-10-04T18:53:16.313Z,4.30
2023-10-04T18:58:21.437Z,2.72
2023-10-04T19:03:25.523Z,2.85
2023-10-04T19:08:29.581Z,3.05
2023-10-04T19:13:38.353Z,3.08
2023-10-04T19:18:42.984Z,2.62
2023-10-04T19:23:49.237Z,3.35
2023-10-04T19:28:54.992Z,4.00
2023-10-04T19:33:58.830Z,4.50
2023-10-04T19:39:04.174Z,4.07
2023-10-04T19:44:09.601Z,3.78
2023-10-04T19:49:13.496Z,4.12
2023-10-04T19:54:17.397Z,3.85
2023-10-04T19:59:22.508Z,3.47
2023-10-04T20:04:26.251Z,4.37
2023-10-04T20:09:32.501Z,3.65
2023-10-04T20:14:38.631Z,3.85
2023-10-04T20:19:42.433Z,3.80
2023-10-04T20:24:46.254Z,4.15
2023-10-04T20:29:52.084Z,3.45
2023-10-04T20:34:55.895Z,4.03
2023-10-04T20:39:59.662Z,3.22
2023-10-04T20:45:05.582Z,3.67
2023-10-04T20:50:10.258Z,4.30
2023-10-04T20:55:14.365Z,3.83
2023-10-04T21:00:21.027Z,4.47
2023-10-04T21:05:26.499Z,3.53
2023-10-04T21:10:30.306Z,3.70
2023-10-04T21:15:36.286Z,3.95
2023-10-04T21:20:40.119Z,3.30
2023-10-04T21:25:43.880Z,4.20
2023-10-04T21:30:54.339Z,3.08
2023-10-04T21:36:06.076Z,3.55
2023-10-04T21:41:09.919Z,3.70
2023-10-04T21:46:23.270Z,3.92
2023-10-04T21:51:46.147Z,3.80
2023-10-04T21:56:50.450Z,3.53
2023-10-04T22:01:55.712Z,3.28
2023-10-04T22:07:14.530Z,3.22
2023-10-04T22:12:25.611Z,3.15
2023-10-04T22:17:34.480Z,2.17
2023-10-04T22:22:38.515Z,2.60
2023-10-04T22:27:42.381Z,3.08
2023-10-04T22:32:49.011Z,2.72
2023-10-04T22:37:53.792Z,2.78
2023-10-04T22:43:01.941Z,2.67
2023-10-04T22:48:08.126Z,2.97
2023-10-04T22:53:11.968Z,3.20
2023-10-04T22:58:16.917Z,2.28
2023-10-04T23:03:33.780Z,2.90
2023-10-04T23:08:46.188Z,2.70
2023-10-04T23:13:52.150Z,3.28
2023-10-04T23:18:59.409Z,3.00
2023-10-04T23:24:09.421Z,2.55
2023-10-04T23:29:14.513Z,3.10
2023-10-04T23:34:21.764Z,2.90
2023-10-04T23:39:30.550Z,2.70
2023-10-04T23:44:37.253Z,2.87
2023-10-04T23:49:44.128Z,2.50
2023-10-04T23:54:49.782Z,2.87
2023-10-04T23:59:56.123Z,2.45
